Time;durP1;ratioP1;P1;durP2;ratioP2;P2;SDS_P1;SDS_P2;PMS_P1;PMS_P2;Temp;Humidity;BMP_temperature;BMP_pressure;BME280_temperature;BME280_humidity;BME280_pressure;Samples;Min_cycle;Max_cycle;Signal;HPM_P1;HPM_P2
2022/10/19 00:01:17;;;;;;;14.40;8.50;;;16.20;99.90;;;16.53;nan;101670.13;5012193;28;20657;-64
2022/10/19 00:03:48;;;;;;;10.50;6.50;;;16.10;99.90;;;16.42;nan;101667.47;5012192;28;20642;-63
2022/10/19 00:06:32;;;;;;;13.33;7.70;;;16.10;99.90;;;16.52;nan;101657.09;5001017;28;20658;-64
2022/10/19 00:09:09;;;;;;;16.43;8.57;;;16.10;99.90;;;16.50;nan;101657.22;4974679;28;20632;-63
2022/10/19 00:11:40;;;;;;;15.37;7.33;;;16.10;99.90;;;16.38;nan;101658.16;4978102;28;20621;-63
2022/10/19 00:14:15;;;;;;;17.63;8.73;;;16.00;99.90;;;16.37;nan;101659.13;4976791;28;20633;-64
2022/10/19 00:16:44;;;;;;;17.33;8.37;;;16.00;99.90;;;16.39;nan;101659.84;4993079;28;20629;-64
2022/10/19 00:19:18;;;;;;;16.43;7.60;;;16.00;99.90;;;16.35;nan;101657.56;5011870;28;20626;-63
2022/10/19 00:21:46;;;;;;;17.47;9.07;;;15.90;99.90;;;16.34;nan;101667.25;4977935;28;20717;-63
2022/10/19 00:24:13;;;;;;;11.47;6.57;;;15.90;99.90;;;16.37;nan;101667.03;4995658;28;20613;-64
2022/10/19 00:26:40;;;;;;;13.40;7.30;;;15.90;99.90;;;16.36;nan;101667.97;5011616;28;20653;-64
2022/10/19 00:29:10;;;;;;;13.17;8.10;;;15.90;99.90;;;16.38;nan;101668.69;5011742;28;21019;-64
2022/10/19 00:31:37;;;;;;;11.80;7.13;;;15.90;99.90;;;16.31;nan;101667.53;4994223;28;20622;-64
2022/10/19 00:34:03;;;;;;;11.67;7.47;;;15.90;99.90;;;16.31;nan;101659.63;5012012;28;20632;-64
2022/10/19 00:36:38;;;;;;;11.53;7.30;;;15.80;99.90;;;16.41;nan;101657.91;4998672;28;20662;-64
2022/10/19 00:39:09;;;;;;;13.23;6.93;;;15.90;99.90;;;16.39;nan;101654.56;4992370;28;20657;-64
2022/10/19 00:41:37;;;;;;;11.17;7.30;;;15.90;99.90;;;16.44;nan;101655.00;4991581;28;20638;-64
2022/10/19 00:44:29;;;;;;;14.80;7.07;;;15.90;99.90;;;16.22;nan;101652.44;4993382;28;20691;-63
2022/10/19 00:47:02;;;;;;;9.77;6.17;;;15.90;99.90;;;16.10;nan;101650.75;4992449;28;21186;-64
2022/10/19 00:49:36;;;;;;;15.33;7.70;;;15.80;99.90;;;16.21;nan;101650.75;4979470;28;20641;-63
2022/10/19 00:52:10;;;;;;;12.37;6.73;;;15.70;99.90;;;16.13;nan;101647.91;5004639;28;20687;-64
2022/10/19 00:54:40;;;;;;;10.97;5.70;;;15.70;99.90;;;16.11;nan;101644.53;4993257;28;20630;-63
2022/10/19 00:57:08;;;;;;;11.90;6.13;;;15.70;99.90;;;16.04;nan;101638.06;4993552;28;20646;-63
2022/10/19 00:59:37;;;;;;;8.33;4.67;;;15.60;99.90;;;16.04;nan;101640.72;5009136;28;20719;-64
2022/10/19 01:02:06;;;;;;;11.60;6.00;;;15.60;99.90;;;15.98;nan;101643.84;5010097;28;20640;-64
2022/10/19 01:04:41;;;;;;;13.60;7.70;;;15.60;99.90;;;15.98;nan;101641.19;5011065;28;20622;-64
2022/10/19 01:07:08;;;;;;;8.03;5.17;;;15.60;99.90;;;15.94;nan;101647.66;4993945;28;21011;-64
2022/10/19 01:09:35;;;;;;;9.90;6.23;;;15.50;99.90;;;15.91;nan;101642.63;4993997;28;20625;-64
2022/10/19 01:12:21;;;;;;;10.50;6.40;;;15.50;99.90;;;15.88;nan;101642.88;5010936;28;20634;-63
2022/10/19 01:14:51;;;;;;;10.73;7.50;;;15.50;99.90;;;15.81;nan;101632.00;5005913;28;20662;-64
2022/10/19 01:17:36;;;;;;;10.43;5.90;;;15.40;99.90;;;15.86;nan;101631.66;5011644;28;20614;-64
2022/10/19 01:20:32;;;;;;;8.23;5.57;;;15.40;99.90;;;15.82;nan;101627.56;5008514;28;20676;-63
2022/10/19 01:23:46;;;;;;;8.87;5.97;;;15.40;99.90;;;15.80;nan;101624.22;4983640;28;20626;-63
2022/10/19 01:26:37;;;;;;;11.40;6.50;;;15.30;99.90;;;15.66;nan;101621.81;4966472;28;20719;-63
2022/10/19 01:30:00;;;;;;;14.00;7.30;;;15.30;99.90;;;15.67;nan;101626.97;5008862;28;20652;-63
2022/10/19 01:33:04;;;;;;;13.27;7.57;;;15.30;99.90;;;15.57;nan;101618.09;4990950;28;20629;-63
2022/10/19 01:35:45;;;;;;;10.77;6.43;;;15.20;99.90;;;15.50;nan;101614.28;4964010;28;21467;-63
2022/10/19 01:38:29;;;;;;;17.27;7.73;;;15.20;99.90;;;15.50;nan;101615.09;5000984;28;20626;-64
2022/10/19 01:41:27;;;;;;;11.97;6.60;;;15.10;99.90;;;15.34;nan;101604.06;5003085;28;20669;-64
2022/10/19 01:43:59;;;;;;;11.60;6.90;;;15.10;99.90;;;15.33;nan;101606.81;4973950;28;20631;-62
2022/10/19 01:46:36;;;;;;;14.10;7.63;;;15.00;99.90;;;15.34;nan;101604.06;4989704;28;20661;-63
2022/10/19 01:49:47;;;;;;;13.40;6.63;;;15.00;99.90;;;15.46;nan;101604.97;4993667;28;20620;-64
2022/10/19 01:52:18;;;;;;;14.13;7.93;;;15.00;99.90;;;15.56;nan;101605.91;4993903;28;20636;-64
2022/10/19 01:54:51;;;;;;;12.63;8.00;;;15.10;99.90;;;15.51;nan;101605.44;4993464;28;21095;-63
2022/10/19 01:57:41;;;;;;;13.83;7.73;;;15.10;99.90;;;15.61;nan;101601.13;4993399;28;20630;-64
2022/10/19 02:00:11;;;;;;;12.60;7.30;;;15.10;99.90;;;15.48;nan;101593.34;4990397;28;21284;-64
2022/10/19 02:02:44;;;;;;;8.00;5.30;;;15.10;99.90;;;15.44;nan;101588.44;4999818;28;20699;-64
2022/10/19 02:05:12;;;;;;;8.97;6.43;;;15.00;99.90;;;15.36;nan;101591.63;4988868;28;21229;-62
2022/10/19 02:07:43;;;;;;;9.80;7.00;;;15.00;99.90;;;15.38;nan;101591.50;4991395;28;21020;-64
2022/10/19 02:10:10;;;;;;;12.40;7.83;;;15.00;99.90;;;15.31;nan;101590.31;4999735;28;20638;-64
2022/10/19 02:12:37;;;;;;;10.00;6.93;;;15.00;99.90;;;15.48;nan;101588.09;4984368;28;20644;-64
2022/10/19 02:15:16;;;;;;;8.67;5.70;;;15.00;99.90;;;15.57;nan;101594.44;4991728;28;20661;-64
2022/10/19 02:17:46;;;;;;;13.10;7.07;;;15.00;99.90;;;15.51;nan;101595.75;4986758;28;21019;-64
2022/10/19 02:20:14;;;;;;;12.40;7.57;;;15.00;99.90;;;15.37;nan;101593.31;4976410;28;20666;-64
2022/10/19 02:22:42;;;;;;;6.30;4.83;;;15.00;99.90;;;15.43;nan;101603.41;4974623;28;20618;-64
2022/10/19 02:25:10;;;;;;;9.47;5.70;;;15.00;99.90;;;15.47;nan;101602.22;4975282;28;20643;-64
2022/10/19 02:27:40;;;;;;;7.67;5.10;;;15.00;99.90;;;15.51;nan;101598.38;4973682;28;20622;-64
2022/10/19 02:30:14;;;;;;;8.93;6.10;;;15.00;99.90;;;15.52;nan;101602.66;4993570;28;20625;-64
2022/10/19 02:32:43;;;;;;;8.93;5.30;;;15.10;99.90;;;15.53;nan;101599.09;5009374;28;20633;-64
2022/10/19 02:35:12;;;;;;;9.73;6.43;;;15.10;99.90;;;15.63;nan;101598.38;4989336;28;20666;-64
2022/10/19 02:37:39;;;;;;;8.67;5.40;;;15.10;99.90;;;15.53;nan;101591.22;4992407;28;20700;-64
2022/10/19 02:40:08;;;;;;;10.80;6.63;;;15.10;99.90;;;15.46;nan;101590.00;4991281;28;21251;-64
2022/10/19 02:42:46;;;;;;;11.27;6.70;;;15.00;99.90;;;15.49;nan;101589.78;4993176;28;20613;-64
2022/10/19 02:45:27;;;;;;;9.40;6.00;;;15.10;99.90;;;15.50;nan;101580.91;5010394;28;21033;-65
2022/10/19 02:48:19;;;;;;;11.30;5.87;;;15.10;99.90;;;15.58;nan;101584.75;5008558;28;20630;-65
2022/10/19 02:50:46;;;;;;;8.60;5.23;;;15.10;99.90;;;15.56;nan;101584.03;4978534;28;20631;-63
2022/10/19 02:53:14;;;;;;;10.67;5.70;;;15.10;99.90;;;15.70;nan;101578.53;4990367;28;22588;-63
2022/10/19 02:55:41;;;;;;;10.93;5.93;;;15.10;99.90;;;15.67;nan;101582.25;4972783;28;20700;-63
2022/10/19 02:58:08;;;;;;;10.17;6.37;;;15.20;99.90;;;15.74;nan;101579.97;4994547;28;21049;-63
2022/10/19 03:00:35;;;;;;;11.47;6.30;;;15.10;99.90;;;15.73;nan;101580.94;4997306;28;20768;-64
2022/10/19 03:03:02;;;;;;;10.87;6.07;;;15.20;99.90;;;15.68;nan;101581.28;5000372;28;20998;-63
2022/10/19 03:05:29;;;;;;;11.17;7.10;;;15.20;99.90;;;15.66;nan;101582.34;5013344;28;20664;-64
2022/10/19 03:07:56;;;;;;;10.70;6.70;;;15.20;99.90;;;15.70;nan;101575.88;4994868;28;20626;-64
2022/10/19 03:10:23;;;;;;;9.70;6.10;;;15.20;99.90;;;15.64;nan;101581.63;4993246;28;20681;-65
2022/10/19 03:12:50;;;;;;;12.77;7.80;;;15.20;99.90;;;15.75;nan;101574.59;4990147;28;20637;-65
2022/10/19 03:15:18;;;;;;;9.57;5.87;;;15.20;99.90;;;15.72;nan;101568.72;5001276;28;20672;-63
2022/10/19 03:17:45;;;;;;;10.60;6.50;;;15.30;99.90;;;15.76;nan;101567.53;4976770;28;20629;-63
2022/10/19 03:20:12;;;;;;;11.20;7.10;;;15.20;99.90;;;15.61;nan;101572.19;4994411;28;20688;-64
2022/10/19 03:22:39;;;;;;;10.17;7.00;;;15.20;99.90;;;15.74;nan;101567.63;5013355;28;20617;-63
2022/10/19 03:25:06;;;;;;;19.13;8.67;;;15.30;99.90;;;15.61;nan;101571.38;5013117;28;20720;-63
2022/10/19 03:27:33;;;;;;;12.20;7.33;;;15.20;99.90;;;15.74;nan;101567.63;5014139;28;20628;-64
2022/10/19 03:30:01;;;;;;;13.30;7.83;;;15.20;99.90;;;15.65;nan;101567.53;4995168;28;21231;-64
2022/10/19 03:32:28;;;;;;;12.20;6.83;;;15.20;99.90;;;15.75;nan;101568.47;4993958;28;20638;-64
2022/10/19 03:34:55;;;;;;;14.87;7.30;;;15.20;99.90;;;15.80;nan;101568.97;4998220;28;20665;-64
2022/10/19 03:37:21;;;;;;;11.80;6.70;;;15.30;99.90;;;15.84;nan;101567.75;5002085;28;20627;-64
2022/10/19 03:39:48;;;;;;;17.23;8.70;;;15.30;99.90;;;15.78;nan;101563.81;4992702;28;20618;-64
2022/10/19 03:42:15;;;;;;;12.37;8.10;;;15.30;99.90;;;15.79;nan;101567.28;5005055;28;20680;-64
2022/10/19 03:44:51;;;;;;;14.60;7.70;;;15.30;99.90;;;15.88;nan;101564.78;5012488;28;21205;-67
2022/10/19 03:47:18;;;;;;;17.00;8.37;;;15.30;99.90;;;15.77;nan;101567.41;5000154;28;20630;-64
2022/10/19 03:49:45;;;;;;;15.03;7.60;;;15.30;99.90;;;15.87;nan;101568.34;5002880;28;20638;-64
2022/10/19 03:52:12;;;;;;;14.77;8.33;;;15.30;99.90;;;15.73;nan;101565.97;4994646;28;20636;-64
2022/10/19 03:54:39;;;;;;;16.57;8.70;;;15.30;99.90;;;15.80;nan;101571.59;5011968;28;21229;-64
2022/10/19 03:57:06;;;;;;;15.50;7.70;;;15.30;99.90;;;15.74;nan;101567.63;4994444;28;20646;-64
2022/10/19 03:59:33;;;;;;;14.93;7.93;;;15.30;99.90;;;15.78;nan;101570.88;4992542;28;20635;-63
2022/10/19 04:02:00;;;;;;;14.50;8.00;;;15.30;99.90;;;15.91;nan;101568.94;5008516;28;20669;-64
2022/10/19 04:04:27;;;;;;;15.93;7.60;;;15.30;99.90;;;15.80;nan;101579.50;5012086;28;21195;-64
2022/10/19 04:06:54;;;;;;;14.80;7.10;;;15.40;99.90;;;15.90;nan;101569.91;4970747;28;20657;-63
2022/10/19 04:09:22;;;;;;;12.20;6.40;;;15.40;99.90;;;15.92;nan;101571.47;5000193;28;20631;-63
2022/10/19 04:11:49;;;;;;;18.97;8.20;;;15.40;99.90;;;15.88;nan;101575.31;4987300;28;20695;-63
2022/10/19 04:14:20;;;;;;;17.43;8.37;;;15.40;99.90;;;15.87;nan;101575.41;5009141;28;20641;-63
2022/10/19 04:16:57;;;;;;;17.37;7.67;;;15.40;99.90;;;15.91;nan;101572.41;4993826;28;20619;-64
2022/10/19 04:19:24;;;;;;;14.50;7.37;;;15.40;99.90;;;15.92;nan;101579.34;5011553;28;20642;-63
2022/10/19 04:21:51;;;;;;;23.60;9.23;;;15.40;99.90;;;16.05;nan;101576.59;5011440;28;20684;-63
2022/10/19 04:24:18;;;;;;;19.73;8.20;;;15.50;99.90;;;16.05;nan;101581.84;5012154;28;20595;-63
2022/10/19 04:26:49;;;;;;;18.83;8.27;;;15.50;99.90;;;16.13;nan;101587.34;4994173;28;20673;-64
2022/10/19 04:29:18;;;;;;;17.93;8.60;;;15.50;99.90;;;16.09;nan;101588.53;5008949;28;20664;-64
2022/10/19 04:31:48;;;;;;;22.20;8.90;;;15.50;99.90;;;16.08;nan;101584.22;5011457;28;20699;-64
2022/10/19 04:34:16;;;;;;;23.03;9.70;;;15.60;99.90;;;16.11;nan;101589.25;5006863;28;20641;-64
2022/10/19 04:36:43;;;;;;;15.00;7.60;;;15.60;99.90;;;16.13;nan;101592.59;4992444;28;20645;-63
2022/10/19 04:39:10;;;;;;;23.30;9.03;;;15.60;99.90;;;16.13;nan;101596.06;5010802;28;21114;-63
2022/10/19 04:41:37;;;;;;;17.57;7.00;;;15.60;99.90;;;16.12;nan;101590.94;5010402;28;20676;-64
2022/10/19 04:44:05;;;;;;;19.10;9.53;;;15.60;99.90;;;16.09;nan;101591.19;5011578;28;20622;-63
2022/10/19 04:46:33;;;;;;;21.20;9.20;;;15.60;99.90;;;16.11;nan;101589.25;5009797;28;20688;-63
2022/10/19 04:49:00;;;;;;;19.70;8.97;;;15.60;99.90;;;16.02;nan;101584.72;5009850;28;21201;-63
2022/10/19 04:51:27;;;;;;;22.40;9.30;;;15.60;99.90;;;16.12;nan;101583.03;4991644;28;21215;-63
2022/10/19 04:53:57;;;;;;;23.03;7.70;;;15.60;99.90;;;16.20;nan;101578.00;4992474;28;20741;-63
2022/10/19 04:56:26;;;;;;;16.63;7.87;;;15.60;99.90;;;16.17;nan;101570.31;5010558;28;20654;-63
2022/10/19 04:58:56;;;;;;;19.57;8.10;;;15.60;99.90;;;16.19;nan;101574.50;4993118;28;21251;-64
2022/10/19 05:01:25;;;;;;;20.80;6.80;;;15.60;99.90;;;16.13;nan;101566.28;5011085;28;20668;-63
2022/10/19 05:03:55;;;;;;;23.20;8.80;;;15.60;99.90;;;16.11;nan;101565.56;4993708;28;20624;-63
2022/10/19 05:06:24;;;;;;;19.47;8.20;;;15.60;99.90;;;16.07;nan;101550.97;4993498;28;20654;-63
2022/10/19 05:08:51;;;;;;;18.20;8.90;;;15.60;99.90;;;16.01;nan;101551.47;4993845;28;20630;-64
2022/10/19 05:11:19;;;;;;;17.43;8.80;;;15.60;99.90;;;16.03;nan;101554.81;4991730;28;20646;-63
2022/10/19 05:13:47;;;;;;;23.93;9.40;;;15.50;99.90;;;15.89;nan;101544.53;4988606;28;21235;-63
2022/10/19 05:16:18;;;;;;;15.37;7.87;;;15.50;99.90;;;15.91;nan;101538.19;5005412;28;20664;-63
2022/10/19 05:18:50;;;;;;;14.03;7.20;;;15.40;99.90;;;15.89;nan;101553.28;5009333;28;20634;-63
2022/10/19 05:21:19;;;;;;;18.70;9.40;;;15.40;99.90;;;15.92;nan;101550.41;4990672;28;20669;-63
2022/10/19 05:23:50;;;;;;;17.70;8.90;;;15.40;99.90;;;15.80;nan;101551.34;4973686;28;21260;-64
2022/10/19 05:26:19;;;;;;;17.60;7.67;;;15.40;99.90;;;15.88;nan;101548.13;4979238;28;20658;-64
2022/10/19 05:29:00;;;;;;;19.57;8.40;;;15.40;99.90;;;15.92;nan;101546.94;4991502;28;21071;-64
2022/10/19 05:31:30;;;;;;;19.60;9.07;;;15.40;99.90;;;15.85;nan;101543.94;5010153;28;21178;-63
2022/10/19 05:33:57;;;;;;;21.37;9.40;;;15.40;99.90;;;15.95;nan;101542.25;5009962;28;20954;-63
2022/10/19 05:36:31;;;;;;;15.27;7.30;;;15.40;99.90;;;16.07;nan;101536.03;4993446;28;20662;-64
2022/10/19 05:39:01;;;;;;;19.47;8.40;;;15.50;99.90;;;15.88;nan;101543.72;4992867;28;20629;-63
2022/10/19 05:41:28;;;;;;;15.60;7.77;;;15.50;99.90;;;15.81;nan;101541.69;5010176;28;21069;-65
2022/10/19 05:43:58;;;;;;;17.57;8.40;;;15.40;99.90;;;15.59;nan;101550.41;5008266;28;20648;-63
2022/10/19 05:46:27;;;;;;;18.87;9.30;;;15.30;99.90;;;15.57;nan;101543.63;5004992;28;21446;-63
2022/10/19 05:48:58;;;;;;;15.77;8.40;;;15.20;99.90;;;15.64;nan;101553.53;5006304;28;20653;-63
2022/10/19 05:51:27;;;;;;;17.73;9.00;;;15.20;99.90;;;15.63;nan;101548.41;4993240;28;20642;-64
2022/10/19 05:53:55;;;;;;;22.87;9.40;;;15.20;99.90;;;15.61;nan;101550.31;5010207;28;20641;-63
2022/10/19 05:56:28;;;;;;;19.90;8.70;;;15.20;99.90;;;15.64;nan;101544.81;5010276;28;20742;-64
2022/10/19 05:58:58;;;;;;;19.23;8.50;;;15.20;99.90;;;15.64;nan;101547.44;4992713;28;20618;-63
2022/10/19 06:01:27;;;;;;;17.77;9.50;;;15.20;99.90;;;15.80;nan;101547.91;5010398;28;21233;-63
2022/10/19 06:03:57;;;;;;;14.47;8.30;;;15.20;99.90;;;15.64;nan;101544.81;5010877;28;20611;-64
2022/10/19 06:06:25;;;;;;;12.80;7.80;;;15.20;99.90;;;15.76;nan;101549.94;5009584;28;20660;-63
2022/10/19 06:08:54;;;;;;;17.57;9.03;;;15.30;99.90;;;15.66;nan;101559.50;4988778;28;20635;-63
2022/10/19 06:11:28;;;;;;;13.53;7.73;;;15.20;99.90;;;15.75;nan;101552.69;4990840;28;20640;-64
2022/10/19 06:13:58;;;;;;;17.80;8.10;;;15.20;99.90;;;15.80;nan;101550.53;4985504;28;20641;-63
2022/10/19 06:16:26;;;;;;;18.00;7.67;;;15.20;99.90;;;15.69;nan;101555.81;4975453;28;20654;-64
2022/10/19 06:18:54;;;;;;;15.27;6.83;;;15.20;99.90;;;15.76;nan;101554.38;4977292;28;20630;-63
2022/10/19 06:21:26;;;;;;;19.00;9.00;;;15.20;99.90;;;15.72;nan;101547.66;4991479;28;20673;-64
2022/10/19 06:24:02;;;;;;;16.20;8.17;;;15.30;99.90;;;15.57;nan;101554.97;5010250;28;20942;-63
2022/10/19 06:26:32;;;;;;;16.70;9.63;;;15.20;99.90;;;15.66;nan;101548.16;5005821;28;20672;-63
2022/10/19 06:29:00;;;;;;;23.20;9.13;;;15.20;99.90;;;15.50;nan;101551.97;4973682;28;21199;-63
2022/10/19 06:31:29;;;;;;;13.80;7.27;;;15.10;99.90;;;15.75;nan;101545.66;4985229;28;20639;-63
2022/10/19 06:33:57;;;;;;;16.70;7.73;;;15.20;99.90;;;15.68;nan;101546.22;5000079;28;20634;-63
2022/10/19 06:36:28;;;;;;;16.30;8.53;;;15.20;99.90;;;15.64;nan;101556.16;4980339;28;20693;-64
2022/10/19 06:38:55;;;;;;;17.20;7.90;;;15.20;99.90;;;15.70;nan;101560.09;4989918;28;20636;-64
2022/10/19 06:41:22;;;;;;;18.70;9.40;;;15.20;99.90;;;15.57;nan;101554.16;4995592;28;20661;-64
2022/10/19 06:43:54;;;;;;;21.33;8.67;;;15.10;99.90;;;15.61;nan;101555.59;5004916;28;21182;-63
2022/10/19 06:46:23;;;;;;;9.47;5.87;;;15.10;99.90;;;15.53;nan;101562.28;4979118;28;21317;-64
2022/10/19 06:48:56;;;;;;;21.43;8.87;;;15.10;99.90;;;15.52;nan;101563.22;5010001;28;20637;-63
2022/10/19 06:51:26;;;;;;;18.73;7.87;;;15.10;99.90;;;15.61;nan;101566.91;4995440;28;20689;-63
2022/10/19 06:53:53;;;;;;;16.90;7.50;;;15.10;99.90;;;15.58;nan;101566.34;4980821;28;20638;-64
2022/10/19 06:56:24;;;;;;;18.27;8.80;;;15.10;99.90;;;15.64;nan;101579.00;4978285;28;20662;-63
2022/10/19 06:58:51;;;;;;;22.53;10.70;;;15.10;99.90;;;15.65;nan;101571.00;5004216;28;20634;-63
2022/10/19 07:01:18;;;;;;;22.43;9.90;;;15.10;99.90;;;15.64;nan;101571.13;5007793;28;20731;-64
2022/10/19 07:03:45;;;;;;;21.00;10.43;;;15.10;99.90;;;15.58;nan;101568.97;4976367;28;20626;-63
2022/10/19 07:06:13;;;;;;;20.20;9.90;;;15.10;99.90;;;15.65;nan;101575.44;4989448;28;21039;-63
2022/10/19 07:08:41;;;;;;;20.20;9.97;;;15.10;99.90;;;15.64;nan;101577.22;5007957;28;20698;-64
2022/10/19 07:11:21;;;;;;;16.73;9.43;;;15.10;99.90;;;15.71;nan;101572.31;5012776;28;21213;-63
2022/10/19 07:13:48;;;;;;;19.20;8.57;;;15.20;99.90;;;15.74;nan;101569.47;5011495;28;20633;-64
2022/10/19 07:16:17;;;;;;;23.83;12.00;;;15.20;99.90;;;15.74;nan;101565.00;5006613;28;21032;-63
2022/10/19 07:18:49;;;;;;;37.27;10.43;;;15.20;99.90;;;15.89;nan;101576.97;4995639;28;20717;-63
2022/10/19 07:21:18;;;;;;;25.53;9.90;;;15.30;99.90;;;16.05;nan;101580.06;5002469;28;20704;-64
2022/10/19 07:23:46;;;;;;;21.67;11.40;;;15.30;99.90;;;16.04;nan;101585.44;4976598;28;20637;-64
2022/10/19 07:26:19;;;;;;;21.37;10.57;;;15.40;99.90;;;16.07;nan;101587.81;5003720;28;20665;-65
2022/10/19 07:28:48;;;;;;;20.60;9.47;;;15.50;99.90;;;16.05;nan;101592.38;4982996;28;20598;-65
2022/10/19 07:31:19;;;;;;;24.97;9.47;;;15.40;99.90;;;15.84;nan;101587.03;4992738;28;21190;-63
2022/10/19 07:33:54;;;;;;;14.57;7.63;;;15.40;99.90;;;16.00;nan;101589.25;5012891;28;20609;-65
2022/10/19 07:36:21;;;;;;;16.67;8.23;;;15.40;99.90;;;16.04;nan;101582.78;5009595;28;20665;-65
2022/10/19 07:38:51;;;;;;;14.17;7.40;;;15.40;99.90;;;16.11;nan;101592.72;4994396;28;20666;-64
2022/10/19 07:41:23;;;;;;;18.40;9.30;;;15.50;99.90;;;16.16;nan;101590.53;5011876;28;20618;-65
2022/10/19 07:43:50;;;;;;;15.30;7.80;;;15.50;99.90;;;16.25;nan;101586.34;4987822;28;20638;-64
2022/10/19 07:46:21;;;;;;;18.00;9.50;;;15.60;99.90;;;16.42;nan;101591.06;5007344;28;20666;-65
2022/10/19 07:48:48;;;;;;;13.00;6.07;;;15.70;99.90;;;16.72;nan;101583.34;5004548;28;20611;-64
2022/10/19 07:51:18;;;;;;;15.73;7.97;;;15.80;99.90;;;16.85;nan;101591.91;5008488;28;20712;-64
2022/10/19 07:53:45;;;;;;;17.40;7.23;;;16.00;99.90;;;16.98;nan;101589.94;4985476;28;21039;-64
2022/10/19 07:56:16;;;;;;;16.70;7.50;;;16.10;99.90;;;17.18;nan;101588.25;4995283;28;20662;-62
2022/10/19 07:58:43;;;;;;;17.53;9.30;;;16.20;99.90;;;17.08;nan;101585.53;4992155;28;20627;-64
2022/10/19 08:01:17;;;;;;;14.27;7.60;;;16.30;99.90;;;17.15;nan;101588.50;5002978;28;20637;-64
2022/10/19 08:03:45;;;;;;;20.20;9.30;;;16.30;99.90;;;17.21;nan;101585.34;5012578;28;20640;-63
2022/10/19 08:06:33;;;;;;;15.23;8.80;;;16.40;99.90;;;16.91;nan;101582.63;5010856;28;20649;-64
2022/10/19 08:09:00;;;;;;;17.53;8.73;;;16.40;99.90;;;17.04;nan;101588.56;5012255;28;20691;-64
2022/10/19 08:11:33;;;;;;;11.50;5.27;;;16.40;99.90;;;17.10;nan;101589.88;5012287;28;21148;-64
2022/10/19 08:14:01;;;;;;;16.10;6.97;;;16.40;99.90;;;17.04;nan;101589.41;5002708;28;21208;-63
2022/10/19 08:16:38;;;;;;;11.50;7.00;;;16.40;99.90;;;17.28;nan;101591.78;5005733;28;21070;-64
2022/10/19 08:19:14;;;;;;;18.00;8.87;;;16.40;99.90;;;17.42;nan;101593.25;5002512;28;20638;-64
2022/10/19 08:21:45;;;;;;;14.50;9.20;;;16.50;99.90;;;17.44;nan;101583.41;4989526;28;20728;-63
2022/10/19 08:24:15;;;;;;;18.60;9.10;;;16.60;99.90;;;17.55;nan;101584.16;4991151;28;21200;-63
2022/10/19 08:26:42;;;;;;;16.43;8.87;;;16.70;99.90;;;17.51;nan;101576.66;5011220;28;20626;-64
2022/10/19 08:29:14;;;;;;;17.27;8.63;;;16.70;99.90;;;17.52;nan;101580.97;5011888;28;20631;-64
2022/10/19 08:31:42;;;;;;;22.90;9.30;;;16.70;99.90;;;17.41;nan;101575.75;5011086;28;20629;-64
2022/10/19 08:34:11;;;;;;;14.60;6.43;;;16.70;99.90;;;17.43;nan;101585.22;4991830;28;21006;-63
2022/10/19 08:36:38;;;;;;;24.63;12.17;;;16.70;99.90;;;17.61;nan;101588.09;5010636;28;20645;-61
2022/10/19 08:39:07;;;;;;;24.90;11.67;;;16.80;99.90;;;17.59;nan;101582.13;5008642;28;20646;-67
2022/10/19 08:42:02;;;;;;;19.07;10.03;;;16.80;99.90;;;17.66;nan;101576.16;5006580;28;20641;-63
2022/10/19 08:45:02;;;;;;;14.70;7.80;;;16.80;99.90;;;17.91;nan;101576.69;5003334;28;20622;-64
2022/10/19 08:47:57;;;;;;;19.77;9.40;;;17.00;99.90;;;18.20;nan;101574.94;4974527;28;20648;-63
2022/10/19 08:50:43;;;;;;;15.97;6.97;;;17.10;99.90;;;18.40;nan;101577.47;4991998;28;20631;-63
2022/10/19 08:53:39;;;;;;;16.23;9.07;;;17.30;99.90;;;18.55;nan;101576.09;4985609;28;20630;-64
2022/10/19 08:56:29;;;;;;;11.07;7.17;;;17.40;99.90;;;18.49;nan;101571.38;5002480;28;21036;-64
2022/10/19 08:59:51;;;;;;;18.70;8.23;;;17.50;99.90;;;18.45;nan;101577.06;4977987;28;20633;-64
2022/10/19 09:02:38;;;;;;;9.47;6.63;;;17.50;99.90;;;18.37;nan;101571.63;4990215;28;20665;-64
2022/10/19 09:05:19;;;;;;;11.13;6.33;;;17.50;99.90;;;18.49;nan;101568.75;4962228;28;20656;-65
2022/10/19 09:07:51;;;;;;;9.80;6.17;;;17.50;99.90;;;18.86;nan;101571.53;4989351;28;21194;-63
2022/10/19 09:10:30;;;;;;;11.30;7.63;;;17.70;99.90;;;19.04;nan;101571.63;4998786;28;20629;-63
2022/10/19 09:13:15;;;;;;;7.73;5.60;;;17.80;99.90;;;19.16;nan;101573.97;4998977;28;21208;-63
2022/10/19 09:15:46;;;;;;;11.90;6.90;;;18.00;99.90;;;19.08;nan;101570.38;5011334;28;20649;-64
2022/10/19 09:18:26;;;;;;;15.27;7.10;;;18.00;99.90;;;19.14;nan;101570.66;4992864;28;20638;-64
2022/10/19 09:21:09;;;;;;;10.93;7.67;;;18.10;99.90;;;19.42;nan;101566.28;4993907;28;21058;-64
2022/10/19 09:23:46;;;;;;;9.37;5.70;;;18.30;99.90;;;19.61;nan;101562.72;5005360;28;20667;-64
2022/10/19 09:26:21;;;;;;;12.47;6.30;;;18.40;99.90;;;19.90;nan;101556.28;4974401;28;21206;-63
2022/10/19 09:28:53;;;;;;;11.93;7.73;;;18.60;99.90;;;19.59;nan;101562.84;5010400;28;20652;-63
2022/10/19 09:31:36;;;;;;;17.73;9.67;;;18.60;99.90;;;19.63;nan;101552.81;4993155;28;20652;-65
2022/10/19 09:34:24;;;;;;;13.90;7.43;;;18.50;99.90;;;19.48;nan;101559.56;5010572;28;20717;-64
2022/10/19 09:36:59;;;;;;;11.87;7.17;;;18.40;99.90;;;19.17;nan;101557.13;4991820;28;20700;-64
2022/10/19 09:39:29;;;;;;;14.17;7.30;;;18.30;99.90;;;18.99;nan;101553.56;5011194;28;20639;-64
2022/10/19 09:42:03;;;;;;;14.90;9.17;;;18.20;99.90;;;18.76;nan;101554.81;5009281;28;20665;-64
2022/10/19 09:44:31;;;;;;;9.37;6.30;;;18.10;99.90;;;18.70;nan;101563.31;4991765;28;20641;-64
2022/10/19 09:47:37;;;;;;;11.13;6.13;;;18.00;99.90;;;18.66;nan;101566.38;5010854;28;20691;-65
2022/10/19 09:50:24;;;;;;;10.33;6.00;;;17.90;99.90;;;18.36;nan;101560.22;5009704;28;20764;-64
2022/10/19 09:53:03;;;;;;;11.77;6.10;;;17.70;99.90;;;18.10;nan;101551.13;4992416;28;20632;-63
2022/10/19 09:55:41;;;;;;;6.70;3.17;;;17.50;99.90;;;18.15;nan;101546.28;4991952;28;20668;-64
2022/10/19 09:58:18;;;;;;;1.73;1.60;;;17.40;99.90;;;17.91;nan;101552.91;5008501;28;20649;-64
2022/10/19 10:00:53;;;;;;;11.23;7.20;;;17.30;99.90;;;17.78;nan;101553.97;5009811;28;20629;-64
2022/10/19 10:03:39;;;;;;;18.00;10.43;;;17.20;99.90;;;18.00;nan;101552.94;4993073;28;20673;-64
2022/10/19 10:06:14;;;;;;;10.17;6.70;;;17.20;99.90;;;18.04;nan;101554.31;5010050;28;20662;-63
2022/10/19 10:08:56;;;;;;;10.83;7.33;;;17.30;99.90;;;17.98;nan;101546.09;4992940;28;20702;-63
2022/10/19 10:11:38;;;;;;;11.50;7.33;;;17.30;99.90;;;18.03;nan;101555.31;5005573;28;20626;-63
2022/10/19 10:14:26;;;;;;;10.70;6.90;;;17.30;99.90;;;17.68;nan;101547.84;5010149;28;21047;-64
2022/10/19 10:16:56;;;;;;;13.47;7.40;;;17.30;99.90;;;17.94;nan;101552.63;4985137;28;21185;-64
2022/10/19 10:19:28;;;;;;;13.33;8.70;;;17.20;99.90;;;18.18;nan;101551.31;5010937;28;21172;-65
2022/10/19 10:21:58;;;;;;;14.93;6.80;;;17.30;99.90;;;18.35;nan;101548.00;5012978;28;20630;-64
2022/10/19 10:24:30;;;;;;;10.90;6.67;;;17.40;99.90;;;18.52;nan;101543.84;5014245;28;20621;-64
2022/10/19 10:27:04;;;;;;;11.97;6.87;;;17.50;99.90;;;18.54;nan;101541.91;5013229;28;21001;-64
2022/10/19 10:29:36;;;;;;;14.63;6.97;;;17.70;99.90;;;18.52;nan;101549.97;4997282;28;20622;-63
2022/10/19 10:32:18;;;;;;;16.83;8.00;;;17.70;99.90;;;18.36;nan;101549.66;5009670;28;20642;-64
2022/10/19 10:34:47;;;;;;;18.87;9.70;;;17.70;99.90;;;18.47;nan;101543.41;4980297;28;20646;-64
2022/10/19 10:37:23;;;;;;;15.27;8.47;;;17.70;99.90;;;18.45;nan;101545.38;5009758;28;20633;-64
2022/10/19 10:39:56;;;;;;;13.63;7.63;;;17.70;99.90;;;18.62;nan;101534.09;4991932;28;20630;-64
2022/10/19 10:42:33;;;;;;;16.17;8.80;;;17.80;99.90;;;18.51;nan;101553.56;5010633;28;20660;-64
2022/10/19 10:45:02;;;;;;;14.67;7.37;;;17.80;99.90;;;18.51;nan;101543.00;5003382;28;20664;-64